Time;durP1;ratioP1;P1;durP2;ratioP2;P2;SDS_P1;SDS_P2;PMS_P1;PMS_P2;Temp;Humidity;BMP_temperature;BMP_pressure;BME280_temperature;BME280_humidity;BME280_pressure;Samples;Min_cycle;Max_cycle;Signal;HPM_P1;HPM_P2
2022/09/06 00:00:55;;;;;;;7.07;5.30;;;21.90;56.10;;;;;;4962617;28;20509;-82
2022/09/06 00:03:22;;;;;;;6.30;5.37;;;21.90;56.30;;;;;;4975289;28;20129;-81
2022/09/06 00:05:50;;;;;;;8.77;5.32;;;21.80;56.30;;;;;;4974969;28;20275;-82
2022/09/06 00:08:18;;;;;;;6.80;5.28;;;21.70;56.50;;;;;;4974528;28;20591;-82
2022/09/06 00:10:45;;;;;;;7.10;5.40;;;21.60;56.60;;;;;;4974685;28;20059;-82
2022/09/06 00:13:12;;;;;;;7.70;4.75;;;21.50;56.70;;;;;;4991118;28;20130;-82
2022/09/06 00:15:40;;;;;;;7.57;5.43;;;21.50;56.90;;;;;;4992223;28;20058;-82
2022/09/06 00:18:07;;;;;;;6.47;4.80;;;21.50;57.10;;;;;;4974589;28;20358;-82
2022/09/06 00:20:35;;;;;;;6.20;4.93;;;21.50;57.20;;;;;;4992583;28;20078;-82
2022/09/06 00:23:04;;;;;;;6.53;4.93;;;21.50;57.40;;;;;;4992022;28;20057;-82
2022/09/06 00:25:33;;;;;;;6.63;5.40;;;21.40;57.20;;;;;;4990107;28;20525;-82
2022/09/06 00:28:02;;;;;;;8.13;5.60;;;21.40;57.10;;;;;;4986875;28;20050;-82
2022/09/06 00:30:30;;;;;;;7.72;5.40;;;21.40;57.10;;;;;;4990781;28;20294;-82
2022/09/06 00:32:57;;;;;;;6.97;5.07;;;21.40;57.20;;;;;;4975864;28;20047;-82
2022/09/06 00:35:26;;;;;;;6.97;5.15;;;21.40;57.20;;;;;;4990755;28;20129;-82
2022/09/06 00:37:56;;;;;;;8.07;5.40;;;21.40;57.10;;;;;;4991805;28;20294;-82
2022/09/06 00:40:23;;;;;;;7.27;5.60;;;21.50;57.30;;;;;;4990479;28;20051;-82
2022/09/06 00:42:51;;;;;;;6.25;5.10;;;21.50;57.20;;;;;;4974479;28;20261;-82
2022/09/06 00:45:19;;;;;;;8.75;5.60;;;21.50;57.30;;;;;;4992173;28;20481;-82
2022/09/06 00:47:46;;;;;;;6.82;5.32;;;21.50;57.30;;;;;;4973754;28;20055;-82
2022/09/06 00:50:15;;;;;;;7.00;5.85;;;21.50;57.30;;;;;;4959103;28;20047;-82
2022/09/06 00:52:44;;;;;;;6.33;5.10;;;21.50;57.40;;;;;;4991444;28;20061;-82
2022/09/06 00:55:11;;;;;;;6.97;5.22;;;21.50;57.30;;;;;;4991734;28;20263;-82
2022/09/06 00:57:38;;;;;;;6.57;5.07;;;21.50;57.20;;;;;;4954950;28;20078;-82
2022/09/06 01:00:09;;;;;;;7.65;5.70;;;21.50;57.30;;;;;;4964448;28;20050;-82
2022/09/06 01:02:36;;;;;;;7.55;5.72;;;21.50;57.70;;;;;;4969475;28;20416;-82
2022/09/06 01:05:05;;;;;;;7.20;5.40;;;21.50;57.80;;;;;;4991419;28;20051;-82
2022/09/06 01:07:56;;;;;;;8.10;5.53;;;21.50;57.80;;;;;;4973659;28;20830;-82
2022/09/06 01:10:42;;;;;;;8.40;5.65;;;21.50;57.30;;;;;;4973045;28;20126;-82
2022/09/06 01:13:22;;;;;;;6.93;5.68;;;21.50;57.80;;;;;;4965441;28;20547;-82
2022/09/06 01:15:56;;;;;;;7.22;5.50;;;21.50;57.90;;;;;;4967173;28;20051;-82
2022/09/06 01:18:36;;;;;;;6.83;6.10;;;21.50;58.20;;;;;;4991661;28;20587;-82
2022/09/06 01:21:16;;;;;;;7.80;5.68;;;21.50;58.30;;;;;;4973416;28;20259;-82
2022/09/06 01:27:40;;;;;;;11.82;6.00;;;21.40;58.00;;;;;;4979604;28;20059;-82
2022/09/06 01:30:08;;;;;;;11.73;6.50;;;21.40;58.00;;;;;;4973033;28;20046;-82
2022/09/06 01:32:42;;;;;;;8.53;6.13;;;21.40;58.40;;;;;;4973934;28;20146;-81
2022/09/06 01:35:17;;;;;;;7.13;6.00;;;21.40;58.40;;;;;;4973681;28;20310;-82
2022/09/06 01:37:44;;;;;;;9.25;5.88;;;21.40;58.40;;;;;;4991472;28;20126;-82
2022/09/06 01:40:12;;;;;;;9.18;6.25;;;21.30;58.50;;;;;;4985107;28;20539;-82
2022/09/06 01:42:42;;;;;;;7.60;6.50;;;21.30;58.60;;;;;;4993271;28;20047;-82
2022/09/06 01:45:12;;;;;;;9.10;6.53;;;21.30;58.70;;;;;;4982932;28;20645;-82
2022/09/06 01:47:48;;;;;;;9.35;6.78;;;21.30;58.80;;;;;;4983150;28;20285;-82
2022/09/06 01:50:33;;;;;;;9.32;6.82;;;21.20;58.80;;;;;;4989159;28;20134;-82
2022/09/06 01:53:10;;;;;;;7.20;6.25;;;21.10;58.60;;;;;;4974055;28;20051;-82
2022/09/06 01:55:44;;;;;;;9.65;6.53;;;21.10;58.70;;;;;;4973358;28;20053;-82
2022/09/06 01:58:50;;;;;;;8.60;6.97;;;21.10;58.80;;;;;;4973208;28;20047;-81
2022/09/06 02:01:22;;;;;;;9.45;6.90;;;21.10;58.20;;;;;;4974157;28;20354;-82
2022/09/06 02:03:57;;;;;;;7.68;6.88;;;21.10;59.10;;;;;;4993878;28;20070;-82
2022/09/06 02:06:29;;;;;;;10.18;7.00;;;21.10;59.20;;;;;;4994856;28;20114;-81
2022/09/06 02:09:04;;;;;;;8.70;6.60;;;21.10;59.50;;;;;;4994195;28;20058;-81
2022/09/06 02:11:37;;;;;;;8.40;6.13;;;21.10;59.50;;;;;;4976343;28;20061;-82
2022/09/06 02:14:11;;;;;;;9.82;6.70;;;21.10;59.60;;;;;;4989850;28;20753;-81
2022/09/06 02:16:40;;;;;;;7.65;6.32;;;21.10;59.60;;;;;;4976715;28;20102;-82
2022/09/06 02:19:12;;;;;;;8.68;6.43;;;21.10;59.70;;;;;;4992462;28;20130;-82
2022/09/06 02:21:44;;;;;;;8.88;6.72;;;21.10;59.80;;;;;;4976650;28;20061;-81
2022/09/06 02:24:18;;;;;;;7.53;6.30;;;21.10;59.80;;;;;;4976553;28;20054;-81
2022/09/06 02:26:47;;;;;;;48.05;9.38;;;21.10;60.00;;;;;;4976189;28;20263;-82
2022/09/06 02:29:16;;;;;;;27.95;8.50;;;21.10;60.00;;;;;;4975749;28;20049;-82
2022/09/06 02:31:47;;;;;;;11.55;6.78;;;21.10;60.10;;;;;;4979814;28;20174;-81
2022/09/06 02:34:17;;;;;;;9.23;6.18;;;21.10;60.40;;;;;;4976130;28;20057;-82
2022/09/06 02:36:45;;;;;;;8.30;6.20;;;21.10;60.50;;;;;;4981440;28;20477;-82
2022/09/06 02:39:13;;;;;;;18.15;7.40;;;21.00;60.60;;;;;;4981285;28;20263;-81
2022/09/06 02:41:42;;;;;;;17.38;7.22;;;21.00;60.70;;;;;;4992486;28;20141;-81
2022/09/06 02:44:09;;;;;;;13.15;6.78;;;20.90;60.90;;;;;;4992096;28;20053;-82
2022/09/06 02:46:37;;;;;;;10.23;6.57;;;20.80;60.70;;;;;;4981814;28;20062;-82
2022/09/06 02:49:04;;;;;;;10.43;6.60;;;20.80;60.80;;;;;;4975703;28;20051;-82
2022/09/06 02:51:31;;;;;;;7.70;6.35;;;20.70;60.70;;;;;;4976122;28;20367;-82
2022/09/06 02:53:58;;;;;;;8.27;6.68;;;20.80;60.60;;;;;;4978451;28;20074;-81
2022/09/06 02:56:25;;;;;;;8.48;6.78;;;20.80;60.70;;;;;;4987712;28;20158;-81
2022/09/06 02:58:52;;;;;;;7.82;6.25;;;20.70;60.70;;;;;;4987061;28;20138;-81
2022/09/06 03:01:19;;;;;;;9.50;6.50;;;20.70;60.70;;;;;;4975252;28;21044;-81
2022/09/06 03:03:47;;;;;;;7.60;6.22;;;20.70;60.60;;;;;;4992613;28;20251;-81
2022/09/06 03:06:14;;;;;;;7.65;6.15;;;20.60;61.00;;;;;;4975189;28;20158;-81
2022/09/06 03:08:41;;;;;;;8.10;6.10;;;20.60;61.00;;;;;;4992228;28;20051;-82
2022/09/06 03:11:08;;;;;;;8.60;6.70;;;20.60;61.00;;;;;;4975404;28;20065;-82
2022/09/06 03:13:35;;;;;;;6.97;6.20;;;20.60;61.10;;;;;;4992523;28;20061;-81
2022/09/06 03:16:02;;;;;;;8.40;6.50;;;20.60;61.10;;;;;;4975797;28;20357;-81
2022/09/06 03:18:30;;;;;;;8.75;7.15;;;20.60;61.10;;;;;;4991835;28;20058;-81
2022/09/06 03:20:59;;;;;;;7.90;6.75;;;20.50;61.20;;;;;;4974501;28;20047;-81
2022/09/06 03:23:27;;;;;;;8.32;6.20;;;20.50;61.30;;;;;;4992840;28;20060;-81
2022/09/06 03:25:54;;;;;;;7.90;6.10;;;20.40;61.30;;;;;;4992916;28;20165;-81
2022/09/06 03:28:22;;;;;;;9.13;6.65;;;20.30;61.20;;;;;;4972019;28;20254;-82
2022/09/06 03:30:50;;;;;;;9.32;6.68;;;20.30;61.30;;;;;;4960712;28;20496;-82
2022/09/06 03:33:18;;;;;;;10.70;7.47;;;20.30;61.40;;;;;;4975348;28;20058;-82
2022/09/06 03:35:48;;;;;;;8.60;6.70;;;20.30;61.60;;;;;;4975488;28;20055;-81
2022/09/06 03:38:17;;;;;;;7.80;6.50;;;20.20;61.80;;;;;;4991387;28;20129;-82
2022/09/06 03:40:45;;;;;;;10.52;6.68;;;20.10;61.80;;;;;;4992669;28;20275;-81
2022/09/06 03:43:12;;;;;;;9.48;6.43;;;20.10;61.90;;;;;;4975315;28;20138;-82
2022/09/06 03:45:39;;;;;;;9.05;6.97;;;20.00;62.00;;;;;;4975704;28;20055;-82
2022/09/06 03:48:06;;;;;;;11.70;7.45;;;20.00;62.00;;;;;;4975194;28;20050;-81
2022/09/06 03:50:33;;;;;;;8.43;6.67;;;20.00;62.10;;;;;;4991652;28;20138;-82
2022/09/06 03:53:00;;;;;;;8.13;6.93;;;20.00;62.20;;;;;;5003365;28;20262;-81
2022/09/06 03:55:28;;;;;;;9.98;6.90;;;20.00;62.20;;;;;;4994644;28;20057;-82
2022/09/06 03:57:55;;;;;;;9.05;6.80;;;20.00;62.20;;;;;;5010867;28;20054;-81
2022/09/06 04:00:22;;;;;;;10.10;6.75;;;20.00;62.10;;;;;;5012462;28;20058;-81
2022/09/06 04:02:49;;;;;;;11.83;6.87;;;20.00;62.10;;;;;;4994659;28;20058;-81
2022/09/06 04:05:17;;;;;;;11.40;7.28;;;20.00;62.30;;;;;;5012140;28;20262;-82
2022/09/06 04:07:44;;;;;;;10.75;7.32;;;20.00;62.30;;;;;;5012460;28;20055;-81
2022/09/06 04:10:11;;;;;;;9.90;7.38;;;20.00;62.40;;;;;;5012183;28;20066;-82
2022/09/06 04:12:39;;;;;;;12.48;7.53;;;20.00;62.40;;;;;;5011817;28;20055;-81
2022/09/06 04:15:07;;;;;;;10.40;6.77;;;20.10;62.40;;;;;;5012208;28;20063;-82
2022/09/06 04:17:34;;;;;;;9.77;7.60;;;20.10;62.50;;;;;;5010702;28;20293;-82
2022/09/06 04:20:01;;;;;;;10.63;7.07;;;20.10;62.60;;;;;;4994426;28;20149;-82
2022/09/06 04:22:28;;;;;;;12.55;7.68;;;20.10;62.50;;;;;;5011796;28;20133;-81
2022/09/06 04:24:55;;;;;;;11.35;7.75;;;20.10;62.70;;;;;;4978082;28;20133;-82
2022/09/06 04:27:22;;;;;;;11.10;7.30;;;20.10;62.70;;;;;;5009684;28;20121;-82
2022/09/06 04:29:50;;;;;;;11.02;7.63;;;20.10;62.80;;;;;;4994232;28;20381;-81
2022/09/06 04:32:17;;;;;;;9.80;7.82;;;20.10;62.80;;;;;;4994102;28;20942;-81
2022/09/06 04:34:44;;;;;;;8.70;7.25;;;20.20;63.00;;;;;;4994323;28;20603;-81
2022/09/06 04:37:11;;;;;;;9.32;7.07;;;20.20;63.00;;;;;;4983690;28;20051;-81
2022/09/06 04:39:37;;;;;;;9.50;7.40;;;20.20;63.20;;;;;;4954759;28;20102;-82
2022/09/06 04:42:05;;;;;;;10.48;7.70;;;20.20;63.20;;;;;;4970998;28;20271;-81
2022/09/06 04:44:32;;;;;;;10.43;7.65;;;20.20;63.40;;;;;;4957761;28;20161;-81
2022/09/06 04:47:06;;;;;;;10.52;7.65;;;20.20;63.30;;;;;;4973819;28;20058;-82
2022/09/06 04:49:33;;;;;;;10.82;7.93;;;20.30;63.50;;;;;;4973445;28;20051;-81
2022/09/06 04:52:00;;;;;;;9.80;7.57;;;20.30;63.80;;;;;;4974042;28;20059;-82
2022/09/06 04:54:27;;;;;;;10.60;7.90;;;20.30;63.70;;;;;;4987629;28;20255;-82
2022/09/06 04:56:53;;;;;;;8.90;7.97;;;20.30;63.90;;;;;;4983170;28;20544;-81
2022/09/06 04:59:20;;;;;;;9.43;7.72;;;20.30;63.60;;;;;;4973666;28;20055;-81
2022/09/06 05:01:47;;;;;;;11.23;7.88;;;20.30;63.60;;;;;;4991384;28;20050;-81
2022/09/06 05:04:16;;;;;;;9.23;7.97;;;20.30;63.90;;;;;;4973621;28;20061;-81
2022/09/06 05:06:42;;;;;;;9.57;7.63;;;20.30;64.40;;;;;;4973935;28;21308;-81
2022/09/06 05:09:09;;;;;;;10.95;7.95;;;20.30;64.50;;;;;;4991382;28;20832;-81
2022/09/06 05:11:36;;;;;;;8.98;7.80;;;20.30;64.60;;;;;;4972967;28;20057;-81
2022/09/06 05:14:03;;;;;;;9.95;8.30;;;20.30;65.00;;;;;;4991619;28;20141;-81
2022/09/06 05:16:30;;;;;;;10.27;8.10;;;20.30;65.10;;;;;;4973765;28;20058;-81
2022/09/06 05:18:57;;;;;;;9.73;8.00;;;20.30;65.50;;;;;;4973792;28;20280;-82
2022/09/06 05:21:25;;;;;;;10.50;7.88;;;20.30;65.70;;;;;;4990094;28;20580;-81
2022/09/06 05:23:53;;;;;;;10.95;8.65;;;20.30;66.10;;;;;;4973347;28;20147;-81
2022/09/06 05:26:19;;;;;;;9.68;8.30;;;20.20;66.00;;;;;;4973442;28;20130;-81
2022/09/06 05:28:46;;;;;;;9.57;8.40;;;20.20;66.20;;;;;;4990960;28;20644;-81
2022/09/06 05:31:25;;;;;;;9.77;8.00;;;20.20;66.20;;;;;;4991215;28;20782;-82
2022/09/06 05:33:52;;;;;;;10.43;8.65;;;20.20;65.70;;;;;;4973671;28;20047;-81
2022/09/06 05:36:19;;;;;;;10.65;8.50;;;20.20;66.30;;;;;;4993655;28;20047;-81
2022/09/06 05:38:47;;;;;;;10.73;8.40;;;20.20;66.20;;;;;;4967819;28;20054;-81
2022/09/06 05:41:14;;;;;;;11.47;8.57;;;20.10;66.10;;;;;;4961947;28;20048;-81
2022/09/06 05:43:41;;;;;;;11.07;8.68;;;20.10;66.30;;;;;;4994689;28;20974;-81
2022/09/06 05:46:09;;;;;;;11.88;8.75;;;20.10;66.20;;;;;;4992916;28;20485;-81
2022/09/06 05:48:35;;;;;;;11.68;9.38;;;20.10;66.60;;;;;;4976658;28;20054;-81
2022/09/06 05:51:04;;;;;;;12.95;9.02;;;20.00;66.60;;;;;;4969588;28;20057;-78
2022/09/06 05:53:34;;;;;;;9.47;8.10;;;20.00;66.80;;;;;;4974900;28;20101;-79
2022/09/06 05:56:04;;;;;;;10.40;8.40;;;20.00;66.70;;;;;;4992124;28;20270;-79
2022/09/06 05:58:31;;;;;;;10.80;8.02;;;20.00;67.00;;;;;;4990788;28;20047;-79
2022/09/06 06:01:08;;;;;;;10.18;8.15;;;20.00;67.20;;;;;;4975167;28;20070;-79
2022/09/06 06:03:35;;;;;;;9.07;7.97;;;19.90;67.20;;;;;;4974697;28;20977;-79
2022/09/06 06:06:02;;;;;;;10.40;8.17;;;19.90;67.60;;;;;;4988867;28;20102;-79
2022/09/06 06:08:28;;;;;;;9.45;8.45;;;19.90;67.90;;;;;;4993432;28;20283;-79
2022/09/06 06:10:59;;;;;;;11.80;7.78;;;19.80;67.90;;;;;;4986783;28;20047;-79
2022/09/06 06:13:33;;;;;;;11.20;8.40;;;19.70;68.00;;;;;;4982746;28;20051;-79
2022/09/06 06:16:01;;;;;;;12.57;9.27;;;19.70;68.10;;;;;;4966581;28;20126;-79
2022/09/06 06:18:29;;;;;;;10.17;8.57;;;19.70;68.00;;;;;;4973553;28;20054;-79
2022/09/06 06:21:11;;;;;;;10.93;9.02;;;19.70;68.40;;;;;;4973803;28;21280;-80
2022/09/06 06:23:39;;;;;;;10.30;8.15;;;19.70;68.40;;;;;;4989495;28;20050;-79
2022/09/06 06:26:07;;;;;;;9.35;8.00;;;19.70;68.60;;;;;;4989441;28;20051;-79
2022/09/06 06:28:35;;;;;;;12.30;8.48;;;19.70;68.40;;;;;;4966696;28;20050;-79
2022/09/06 06:31:03;;;;;;;10.77;8.60;;;19.70;68.70;;;;;;4983375;28;20055;-80
2022/09/06 06:33:30;;;;;;;10.27;8.25;;;19.70;68.60;;;;;;4982518;28;20644;-79
2022/09/06 06:35:58;;;;;;;10.48;8.50;;;19.70;68.60;;;;;;4967982;28;20134;-79
2022/09/06 06:38:30;;;;;;;12.15;8.57;;;19.70;68.50;;;;;;4992263;28;20054;-79
2022/09/06 06:40:58;;;;;;;10.40;8.55;;;19.70;68.60;;;;;;4972281;28;20046;-79
2022/09/06 06:43:25;;;;;;;11.63;7.87;;;19.70;68.70;;;;;;4972032;28;20509;-79
2022/09/06 06:45:53;;;;;;;10.40;8.73;;;19.70;68.80;;;;;;4959638;28;20256;-79
2022/09/06 06:48:20;;;;;;;10.82;8.82;;;19.70;69.00;;;;;;4986743;28;20042;-79
2022/09/06 06:50:47;;;;;;;12.15;8.73;;;19.70;69.20;;;;;;4984284;28;20146;-79
2022/09/06 06:53:14;;;;;;;9.85;8.68;;;19.70;69.50;;;;;;4985237;28;20161;-79
2022/09/06 06:55:47;;;;;;;13.10;9.47;;;19.70;69.30;;;;;;4988709;28;20055;-81
2022/09/06 06:58:15;;;;;;;11.55;9.20;;;19.70;69.30;;;;;;4974734;28;20772;-80
2022/09/06 07:00:43;;;;;;;10.05;8.95;;;19.70;69.70;;;;;;4973543;28;20142;-79
2022/09/06 07:03:12;;;;;;;12.88;9.57;;;19.70;70.10;;;;;;4977027;28;20131;-82
2022/09/06 07:05:42;;;;;;;13.70;10.02;;;19.70;70.50;;;;;;4973700;28;20534;-82
2022/09/06 07:08:09;;;;;;;11.70;10.30;;;19.70;70.70;;;;;;4956824;28;20086;-82
2022/09/06 07:10:37;;;;;;;12.18;9.43;;;19.70;70.90;;;;;;4954922;28;20805;-84
2022/09/06 07:13:04;;;;;;;11.93;10.65;;;19.70;71.20;;;;;;4954798;28;20066;-82
2022/09/06 07:15:31;;;;;;;13.95;10.30;;;19.70;71.40;;;;;;4955068;28;20438;-83
2022/09/06 07:17:58;;;;;;;13.57;11.40;;;19.70;72.10;;;;;;4965620;28;20057;-83
2022/09/06 07:20:26;;;;;;;15.23;9.83;;;19.70;72.20;;;;;;4973907;28;20042;-79
2022/09/06 07:23:00;;;;;;;13.55;10.85;;;19.70;72.20;;;;;;4990318;28;20257;-83
2022/09/06 07:25:32;;;;;;;12.90;9.80;;;19.70;72.30;;;;;;4977550;28;20057;-83
2022/09/06 07:28:00;;;;;;;12.57;10.07;;;19.80;72.10;;;;;;4975508;28;20059;-81
2022/09/06 07:30:28;;;;;;;11.65;9.60;;;19.80;72.20;;;;;;4991189;28;20054;-80
2022/09/06 07:32:54;;;;;;;11.60;9.80;;;19.80;72.20;;;;;;4975841;28;20715;-81
2022/09/06 07:35:22;;;;;;;11.63;9.20;;;19.90;72.30;;;;;;4954934;28;20259;-76
2022/09/06 07:37:54;;;;;;;12.63;10.07;;;19.90;72.30;;;;;;4972824;28;20485;-81
2022/09/06 07:40:21;;;;;;;17.00;11.02;;;19.90;72.50;;;;;;4973593;28;20494;-81
2022/09/06 07:42:48;;;;;;;12.15;9.60;;;20.00;72.60;;;;;;4984586;28;20055;-82
2022/09/06 07:45:15;;;;;;;13.03;9.97;;;20.00;72.70;;;;;;4974384;28;20046;-81
2022/09/06 07:47:42;;;;;;;13.55;10.45;;;20.00;72.80;;;;;;4982877;28;20329;-81
2022/09/06 07:50:09;;;;;;;11.80;10.35;;;20.10;72.90;;;;;;4974152;28;20051;-80
2022/09/06 07:52:36;;;;;;;12.07;9.80;;;20.10;72.70;;;;;;4974626;28;20046;-79
2022/09/06 07:55:05;;;;;;;11.63;9.38;;;20.20;72.70;;;;;;4974800;28;20879;-80
2022/09/06 07:57:32;;;;;;;13.63;10.77;;;20.30;72.70;;;;;;4992606;28;20143;-79
2022/09/06 08:00:00;;;;;;;14.25;10.88;;;20.30;72.80;;;;;;4991824;28;20267;-80
2022/09/06 08:02:26;;;;;;;13.23;10.73;;;20.30;72.80;;;;;;4971302;28;20051;-81
2022/09/06 08:04:55;;;;;;;12.38;10.55;;;20.40;72.60;;;;;;4965275;28;20152;-81
2022/09/06 08:07:23;;;;;;;11.95;9.95;;;20.50;72.40;;;;;;4977407;28;20062;-82
2022/09/06 08:09:50;;;;;;;12.20;10.50;;;20.50;72.30;;;;;;4974565;28;20494;-82
2022/09/06 08:12:18;;;;;;;11.75;10.45;;;20.60;72.10;;;;;;4974450;28;20349;-81
2022/09/06 08:14:45;;;;;;;14.30;10.52;;;20.60;72.20;;;;;;4992311;28;20089;-81
2022/09/06 08:17:12;;;;;;;13.63;10.13;;;20.60;72.00;;;;;;4974612;28;20487;-79
2022/09/06 08:19:39;;;;;;;13.73;10.82;;;20.70;71.80;;;;;;4992265;28;20055;-84
2022/09/06 08:22:06;;;;;;;14.50;10.60;;;20.80;71.50;;;;;;4974691;28;20074;-83
2022/09/06 08:24:34;;;;;;;12.38;10.23;;;20.80;71.60;;;;;;4974333;28;20772;-81
2022/09/06 08:27:01;;;;;;;14.95;9.98;;;20.90;71.80;;;;;;4992024;28;20059;-84
2022/09/06 08:29:29;;;;;;;11.65;9.18;;;20.90;71.80;;;;;;4973770;28;20047;-83
2022/09/06 08:31:56;;;;;;;12.13;10.13;;;21.00;71.70;;;;;;4974040;28;20063;-83
2022/09/06 08:34:23;;;;;;;12.33;9.57;;;21.10;71.50;;;;;;4974138;28;20063;-83
2022/09/06 08:36:50;;;;;;;12.43;9.15;;;21.10;71.50;;;;;;4974254;28;20361;-83
2022/09/06 08:39:18;;;;;;;12.35;10.32;;;21.20;71.40;;;;;;4974058;28;20061;-83
2022/09/06 08:41:50;;;;;;;12.50;9.90;;;21.30;71.00;;;;;;4974058;28;20047;-78
2022/09/06 08:44:22;;;;;;;12.70;10.20;;;21.30;70.90;;;;;;4973291;28;20086;-82
2022/09/06 08:46:55;;;;;;;13.27;10.40;;;21.40;70.80;;;;;;4974282;28;20085;-82
2022/09/06 08:49:23;;;;;;;12.02;10.02;;;21.50;70.90;;;;;;4990825;28;20270;-82
2022/09/06 08:52:21;;;;;;;12.85;10.18;;;21.50;71.10;;;;;;4990240;28;20070;-82
2022/09/06 08:54:55;;;;;;;12.43;10.45;;;21.60;70.80;;;;;;4972947;28;20476;-82
2022/09/06 08:57:37;;;;;;;11.52;10.27;;;21.70;70.50;;;;;;4972254;28;20587;-83
2022/09/06 09:00:08;;;;;;;10.70;9.10;;;21.80;70.50;;;;;;4972745;28;20184;-81
2022/09/06 09:02:42;;;;;;;12.27;10.57;;;21.90;70.60;;;;;;4986420;28;20265;-78
2022/09/06 09:05:19;;;;;;;12.30;9.93;;;21.90;70.50;;;;;;4971100;28;20053;-79
2022/09/06 09:07:52;;;;;;;9.50;8.10;;;22.00;70.50;;;;;;4989511;28;20144;-80
2022/09/06 09:10:23;;;;;;;10.48;8.90;;;22.00;70.10;;;;;;4989276;28;20051;-81
2022/09/06 09:12:51;;;;;;;11.23;8.20;;;22.10;69.40;;;;;;4983972;28;20600;-80
2022/09/06 09:15:19;;;;;;;11.05;8.40;;;22.20;68.90;;;;;;4965862;28;20263;-79
2022/09/06 09:17:50;;;;;;;13.40;8.73;;;22.30;68.80;;;;;;4989203;28;20061;-80
2022/09/06 09:20:18;;;;;;;10.25;8.70;;;22.30;68.80;;;;;;4971734;28;20050;-81
2022/09/06 09:22:45;;;;;;;9.98;8.32;;;22.50;68.50;;;;;;4973791;28;20058;-82
2022/09/06 09:25:19;;;;;;;9.73;7.80;;;22.50;68.50;;;;;;4991067;28;20061;-79
2022/09/06 09:27:46;;;;;;;10.23;6.72;;;22.60;68.30;;;;;;4968783;28;20423;-79
2022/09/06 09:30:14;;;;;;;10.32;7.13;;;22.70;67.60;;;;;;4973503;28;20129;-82
2022/09/06 09:32:43;;;;;;;8.20;6.50;;;22.80;67.20;;;;;;4970973;28;20624;-82
2022/09/06 09:35:23;;;;;;;8.05;6.30;;;22.80;66.90;;;;;;4989243;28;20055;-82
2022/09/06 09:38:02;;;;;;;6.70;5.60;;;22.90;66.00;;;;;;4990482;28;20520;-82
2022/09/06 09:40:32;;;;;;;7.47;6.40;;;23.00;65.20;;;;;;4972189;28;20306;-82
2022/09/06 09:43:17;;;;;;;8.05;5.80;;;23.10;64.70;;;;;;4990504;28;20047;-83
2022/09/06 09:45:45;;;;;;;7.03;5.72;;;23.10;64.20;;;;;;5003431;28;20065;-82
2022/09/06 09:48:23;;;;;;;8.13;5.95;;;23.20;64.10;;;;;;4972051;28;20058;-83
2022/09/06 09:50:51;;;;;;;8.87;5.90;;;23.20;64.30;;;;;;4989082;28;20440;-82
2022/09/06 09:53:21;;;;;;;7.57;5.30;;;23.30;64.10;;;;;;4973229;28;20258;-82
2022/09/06 09:55:48;;;;;;;7.07;5.80;;;23.40;64.10;;;;;;4973619;28;20529;-83
2022/09/06 09:58:26;;;;;;;8.18;6.10;;;23.50;64.00;;;;;;4973562;28;20065;-82
2022/09/06 10:01:09;;;;;;;9.35;5.72;;;23.60;63.60;;;;;;4990876;28;20055;-82
2022/09/06 10:03:36;;;;;;;8.47;6.33;;;23.60;63.30;;;;;;4973282;28;20054;-82
2022/09/06 10:06:06;;;;;;;8.80;6.15;;;23.80;62.80;;;;;;4973374;28;20251;-83
2022/09/06 10:08:39;;;;;;;11.60;6.40;;;23.80;63.00;;;;;;4990958;28;20065;-82
2022/09/06 10:11:05;;;;;;;8.20;6.57;;;23.90;62.50;;;;;;4990851;28;20106;-82
2022/09/06 10:13:33;;;;;;;9.35;6.20;;;24.00;62.50;;;;;;4990877;28;20147;-82
2022/09/06 10:16:01;;;;;;;7.80;5.70;;;24.00;62.70;;;;;;4972721;28;20096;-82
2022/09/06 10:18:31;;;;;;;7.30;5.78;;;24.20;62.50;;;;;;4973174;28;20278;-82
2022/09/06 10:21:01;;;;;;;8.43;6.38;;;24.20;62.00;;;;;;4972973;28;20055;-82
2022/09/06 10:23:38;;;;;;;9.13;5.68;;;24.30;62.10;;;;;;4957482;28;20051;-82
2022/09/06 10:26:08;;;;;;;8.15;5.70;;;24.40;61.50;;;;;;4976716;28;20047;-83
2022/09/06 10:28:40;;;;;;;9.33;6.33;;;24.50;61.70;;;;;;4993801;28;20603;-82
2022/09/06 10:31:36;;;;;;;8.05;5.43;;;24.60;61.10;;;;;;4976137;28;20333;-82
2022/09/06 10:34:34;;;;;;;10.05;6.15;;;24.60;60.90;;;;;;4954824;28;20125;-82
2022/09/06 10:37:10;;;;;;;9.38;5.50;;;24.70;61.30;;;;;;4976357;28;20444;-83
2022/09/06 10:39:48;;;;;;;7.75;6.38;;;24.80;60.50;;;;;;4975787;28;20533;-83
2022/09/06 10:42:25;;;;;;;9.10;6.17;;;25.00;60.50;;;;;;4942095;28;21064;-82
2022/09/06 10:45:15;;;;;;;9.10;7.43;;;25.00;60.60;;;;;;4974391;28;20718;-82
2022/09/06 10:47:55;;;;;;;10.00;7.90;;;25.00;61.30;;;;;;4979535;28;20054;-79
2022/09/06 10:50:26;;;;;;;9.50;7.35;;;25.20;61.40;;;;;;4975062;28;20058;-83
2022/09/06 10:52:54;;;;;;;7.78;6.22;;;25.30;60.80;;;;;;4975453;28;20074;-83
2022/09/06 10:55:23;;;;;;;10.93;8.57;;;25.40;60.20;;;;;;4992707;28;20055;-82
2022/09/06 10:57:56;;;;;;;11.82;7.97;;;25.50;60.30;;;;;;4974264;28;20688;-83
2022/09/06 11:00:23;;;;;;;9.63;7.50;;;25.60;60.30;;;;;;4991540;28;20059;-82
2022/09/06 11:02:56;;;;;;;8.50;7.50;;;25.60;60.40;;;;;;4974217;28;20047;-83
2022/09/06 11:05:27;;;;;;;11.77;7.50;;;25.70;60.10;;;;;;4976830;28;20058;-82
2022/09/06 11:08:00;;;;;;;11.30;7.60;;;25.80;60.10;;;;;;4974402;28;20599;-82
2022/09/06 11:10:31;;;;;;;9.07;7.47;;;25.90;59.90;;;;;;4993216;28;20701;-83
2022/09/06 11:13:02;;;;;;;7.70;6.80;;;26.00;59.60;;;;;;4974704;28;20051;-82
2022/09/06 11:15:36;;;;;;;9.43;6.60;;;26.00;59.10;;;;;;4990626;28;20051;-78
2022/09/06 11:18:09;;;;;;;11.57;7.90;;;26.10;58.90;;;;;;4975558;28;20082;-82
2022/09/06 11:20:40;;;;;;;9.63;7.63;;;26.20;58.50;;;;;;4991272;28;20074;-81
2022/09/06 11:23:37;;;;;;;10.88;8.10;;;26.30;58.30;;;;;;4990379;28;20274;-81
2022/09/06 11:26:33;;;;;;;7.93;6.72;;;26.40;58.10;;;;;;4973871;28;20057;-81
2022/09/06 11:29:02;;;;;;;21.95;8.02;;;26.40;58.00;;;;;;4974493;28;20142;-82
2022/09/06 11:31:32;;;;;;;16.77;7.72;;;26.50;57.70;;;;;;4971499;28;20200;-82
2022/09/06 11:34:07;;;;;;;9.53;7.13;;;26.60;57.40;;;;;;4961690;28;20055;-82
2022/09/06 11:36:39;;;;;;;7.47;6.38;;;26.70;57.30;;;;;;4974519;28;20279;-83
2022/09/06 11:39:09;;;;;;;12.60;7.45;;;26.70;57.20;;;;;;4973028;28;20059;-83
2022/09/06 11:41:40;;;;;;;10.75;6.53;;;26.80;56.90;;;;;;4975631;28;20050;-84
2022/09/06 11:44:09;;;;;;;10.90;6.43;;;26.90;56.60;;;;;;4975478;28;20056;-83
2022/09/06 11:47:00;;;;;;;7.87;6.10;;;27.00;56.50;;;;;;4975784;28;20061;-83
2022/09/06 11:49:33;;;;;;;8.15;6.45;;;27.10;56.00;;;;;;4974177;28;20768;-82
2022/09/06 11:52:00;;;;;;;9.27;6.72;;;27.20;55.70;;;;;;4975048;28;20610;-82
2022/09/06 11:54:43;;;;;;;8.95;6.25;;;27.30;55.00;;;;;;4992674;28;20055;-83
2022/09/06 11:57:16;;;;;;;7.78;5.57;;;27.40;54.10;;;;;;4992803;28;20061;-82
2022/09/06 11:59:53;;;;;;;8.00;5.77;;;27.40;54.10;;;;;;4973924;28;20051;-83
2022/09/06 12:02:35;;;;;;;7.75;5.88;;;27.50;54.10;;;;;;4992439;28;20282;-82
2022/09/06 12:05:15;;;;;;;8.63;6.03;;;27.50;54.30;;;;;;4974670;28;20803;-83
2022/09/06 12:08:15;;;;;;;7.53;5.47;;;27.70;54.10;;;;;;4992861;28;20086;-85
2022/09/06 12:10:55;;;;;;;6.43;5.60;;;27.70;53.60;;;;;;4990318;28;20440;-82
2022/09/06 12:13:52;;;;;;;8.80;5.73;;;27.80;53.60;;;;;;4973030;28;20082;-82
2022/09/06 12:16:19;;;;;;;8.00;5.63;;;27.90;52.90;;;;;;4990912;28;20291;-81
2022/09/06 12:18:58;;;;;;;7.18;5.50;;;28.00;52.70;;;;;;4990502;28;20062;-82
2022/09/06 12:21:51;;;;;;;6.20;5.10;;;28.00;52.30;;;;;;4990456;28;20528;-81
2022/09/06 12:24:54;;;;;;;7.25;5.80;;;28.10;52.30;;;;;;4973884;28;20180;-81
2022/09/06 12:27:23;;;;;;;6.50;4.50;;;28.20;51.60;;;;;;4992746;28;20061;-82
2022/09/06 12:29:56;;;;;;;21.38;6.30;;;28.20;51.60;;;;;;4991027;28;20346;-81
2022/09/06 12:32:33;;;;;;;9.68;5.55;;;28.30;51.70;;;;;;4974468;28;20051;-81
2022/09/06 12:35:02;;;;;;;7.32;4.90;;;28.30;51.30;;;;;;4974870;28;20055;-81
2022/09/06 12:37:36;;;;;;;7.03;4.55;;;28.30;51.10;;;;;;4974772;28;20059;-81
2022/09/06 12:40:04;;;;;;;7.20;5.43;;;28.30;50.90;;;;;;4992216;28;20050;-82
2022/09/06 12:42:34;;;;;;;7.00;4.82;;;28.40;50.50;;;;;;4990904;28;20243;-82
2022/09/06 12:45:04;;;;;;;7.13;5.13;;;28.40;50.50;;;;;;4991767;28;20055;-79
2022/09/06 12:47:34;;;;;;;6.43;4.53;;;28.50;49.80;;;;;;4973067;28;20051;-79
2022/09/06 12:50:09;;;;;;;5.60;4.32;;;28.50;49.60;;;;;;4973968;28;20067;-79
2022/09/06 12:52:45;;;;;;;5.40;4.30;;;28.50;49.80;;;;;;4973700;28;20231;-80
2022/09/06 12:55:25;;;;;;;6.25;4.50;;;28.50;49.80;;;;;;4974542;28;20271;-81
2022/09/06 12:57:53;;;;;;;7.78;3.85;;;28.50;49.60;;;;;;4974041;28;20057;-79
2022/09/06 13:00:24;;;;;;;8.48;3.95;;;28.50;49.10;;;;;;4991683;28;20054;-79
2022/09/06 13:03:00;;;;;;;6.22;3.80;;;28.50;49.60;;;;;;4991268;28;20074;-79